createdAt,value
2023-03-12T00:01:24.238Z,38.36
2023-03-12T00:03:54.171Z,38.28
2023-03-12T00:06:22.851Z,38.55
2023-03-12T00:08:51.301Z,38.41
2023-03-12T00:11:21.141Z,38.58
2023-03-12T00:13:51.381Z,38.61
2023-03-12T00:16:20.501Z,38.70
2023-03-12T00:18:50.781Z,38.61
2023-03-12T00:21:21.228Z,38.63
2023-03-12T00:23:51.193Z,38.14
2023-03-12T00:26:21.366Z,38.33
2023-03-12T00:28:50.364Z,38.69
2023-03-12T00:31:20.692Z,38.81
2023-03-12T00:33:50.105Z,38.62
2023-03-12T00:36:21.383Z,38.63
2023-03-12T00:38:49.739Z,38.64
2023-03-12T00:41:19.995Z,38.66
2023-03-12T00:43:50.198Z,38.60
2023-03-12T00:46:21.291Z,38.50
2023-03-12T00:48:50.167Z,38.24
2023-03-12T00:51:19.628Z,38.19
2023-03-12T00:53:48.255Z,38.55
2023-03-12T00:56:16.695Z,38.53
2023-03-12T00:58:46.253Z,38.43
2023-03-12T01:01:15.781Z,38.69
2023-03-12T01:03:44.294Z,38.83
2023-03-12T01:06:13.016Z,38.69
2023-03-12T01:08:42.375Z,38.36
2023-03-12T01:11:19.285Z,38.55
2023-03-12T01:13:48.195Z,38.45
2023-03-12T01:16:16.694Z,38.44
2023-03-12T01:18:45.226Z,38.52
2023-03-12T01:21:13.625Z,38.57
2023-03-12T01:23:42.077Z,38.69
2023-03-12T01:26:10.440Z,38.75
2023-03-12T01:28:38.856Z,38.78
2023-03-12T01:31:09.105Z,38.76
2023-03-12T01:33:37.794Z,38.89
2023-03-12T01:36:25.974Z,38.70
2023-03-12T01:38:57.230Z,38.76
2023-03-12T01:41:28.239Z,38.63
2023-03-12T01:43:56.682Z,38.52
2023-03-12T01:46:29.604Z,38.62
2023-03-12T01:49:08.190Z,38.58
2023-03-12T01:51:45.582Z,38.75
2023-03-12T01:54:26.355Z,38.57
2023-03-12T01:56:56.972Z,38.76
2023-03-12T01:59:31.272Z,39.01
2023-03-12T02:01:59.868Z,38.50
2023-03-12T02:04:30.974Z,38.87
2023-03-12T02:07:05.864Z,39.08
2023-03-12T02:09:39.904Z,39.03
2023-03-12T02:12:09.282Z,38.88
2023-03-12T02:14:38.398Z,38.96
2023-03-12T02:17:08.192Z,39.26
2023-03-12T02:20:08.014Z,39.13
2023-03-12T02:22:38.899Z,39.24
2023-03-12T02:25:32.105Z,39.29
2023-03-12T02:28:04.902Z,39.45
2023-03-12T02:30:33.998Z,39.69
2023-03-12T02:33:06.579Z,39.67
2023-03-12T02:35:36.036Z,39.47
2023-03-12T02:38:33.558Z,39.32
2023-03-12T02:41:16.767Z,39.31
2023-03-12T02:43:47.624Z,39.56
2023-03-12T02:46:16.590Z,39.49
2023-03-12T02:48:45.030Z,39.36
2023-03-12T02:51:13.693Z,39.33
2023-03-12T02:53:42.119Z,39.32
2023-03-12T02:56:10.617Z,39.32
2023-03-12T02:58:38.988Z,39.19
2023-03-12T03:01:07.467Z,39.19
2023-03-12T03:03:35.965Z,39.13
2023-03-12T03:06:04.744Z,39.13
2023-03-12T03:08:33.102Z,39.22
2023-03-12T03:11:03.083Z,39.68
2023-03-12T03:13:31.746Z,39.72
2023-03-12T03:16:02.007Z,39.73
2023-03-12T03:18:31.715Z,40.40
2023-03-12T03:21:07.461Z,40.66
2023-03-12T03:23:36.214Z,40.49
2023-03-12T03:26:04.816Z,40.79
2023-03-12T03:28:33.306Z,40.65
2023-03-12T03:31:02.205Z,41.02
2023-03-12T03:33:33.232Z,40.95
2023-03-12T03:36:02.703Z,41.49
2023-03-12T03:38:32.220Z,41.44
2023-03-12T03:41:01.219Z,41.59
2023-03-12T03:43:29.761Z,41.99
2023-03-12T03:46:04.645Z,42.02
2023-03-12T03:48:33.701Z,41.99
2023-03-12T03:51:04.578Z,42.03
2023-03-12T03:53:34.338Z,42.30
2023-03-12T03:56:10.402Z,42.24
2023-03-12T03:58:38.966Z,42.39
2023-03-12T04:01:07.384Z,42.39
2023-03-12T04:03:36.134Z,42.41
2023-03-12T04:06:06.439Z,42.52
2023-03-12T04:08:37.220Z,42.25
2023-03-12T04:11:18.185Z,42.29
2023-03-12T04:13:47.057Z,42.37
2023-03-12T04:16:16.348Z,42.41
2023-03-12T04:18:45.242Z,42.39
2023-03-12T04:21:14.464Z,42.64
2023-03-12T04:23:42.912Z,42.66
2023-03-12T04:26:11.386Z,42.43
2023-03-12T04:28:39.819Z,42.49
2023-03-12T04:31:10.292Z,42.75
2023-03-12T04:33:39.780Z,42.62
2023-03-12T04:36:08.563Z,42.73
2023-03-12T04:38:37.178Z,42.87
2023-03-12T04:41:09.493Z,42.81
2023-03-12T04:43:38.521Z,43.01
2023-03-12T04:46:07.883Z,43.15
2023-03-12T04:48:37.046Z,42.82
2023-03-12T04:51:05.773Z,42.86
2023-03-12T04:53:34.244Z,42.62
2023-03-12T04:56:02.863Z,42.42
2023-03-12T04:58:31.628Z,42.51
2023-03-12T05:01:00.430Z,42.97
2023-03-12T05:03:29.238Z,43.16
2023-03-12T05:05:58.196Z,43.32
2023-03-12T05:08:26.617Z,43.55
2023-03-12T05:10:55.106Z,43.74
2023-03-12T05:13:23.667Z,43.40
2023-03-12T05:15:52.138Z,44.16
2023-03-12T05:18:21.542Z,45.52
2023-03-12T05:21:01.698Z,44.53
2023-03-12T05:23:30.773Z,45.51
2023-03-12T05:25:59.663Z,44.93
2023-03-12T05:28:28.802Z,45.75
2023-03-12T05:30:58.477Z,46.15
2023-03-12T05:33:28.355Z,45.94
2023-03-12T05:35:57.072Z,46.41
2023-03-12T05:38:25.580Z,46.03
2023-03-12T05:40:56.513Z,46.14
2023-03-12T05:43:25.940Z,46.14
2023-03-12T05:45:59.065Z,45.69
2023-03-12T05:48:28.028Z,46.37
2023-03-12T05:50:57.025Z,46.44
2023-03-12T05:53:25.508Z,46.07
2023-03-12T05:55:54.057Z,46.23
2023-03-12T05:58:22.573Z,47.43
2023-03-12T06:00:51.170Z,47.43
2023-03-12T06:03:19.692Z,46.63
2023-03-12T06:05:48.252Z,46.60
2023-03-12T06:08:16.736Z,46.10
2023-03-12T06:10:45.145Z,47.04
2023-03-12T06:13:13.732Z,47.30
2023-03-12T06:15:42.179Z,46.82
2023-03-12T06:18:10.632Z,47.03
2023-03-12T06:20:39.135Z,46.74
2023-03-12T06:23:07.568Z,46.69
2023-03-12T06:25:36.121Z,47.57
2023-03-12T06:28:04.844Z,48.03
2023-03-12T06:30:33.301Z,46.81
2023-03-12T06:33:04.038Z,46.99
2023-03-12T06:35:32.475Z,48.63
2023-03-12T06:38:01.021Z,47.88
2023-03-12T06:40:29.602Z,47.86
2023-03-12T06:42:58.055Z,47.89
2023-03-12T06:45:26.486Z,47.22
2023-03-12T06:47:54.847Z,47.04
2023-03-12T06:50:23.241Z,47.26
2023-03-12T06:52:52.111Z,47.12
2023-03-12T06:55:20.566Z,47.47
2023-03-12T06:57:48.983Z,47.12
2023-03-12T07:00:17.722Z,47.79
2023-03-12T07:02:46.104Z,47.51
2023-03-12T07:05:15.795Z,47.81
2023-03-12T07:07:44.217Z,48.09
2023-03-12T07:10:12.631Z,47.99
2023-03-12T07:12:41.086Z,49.51
2023-03-12T07:15:10.107Z,49.31
2023-03-12T07:17:38.761Z,49.04
2023-03-12T07:20:08.295Z,48.67
2023-03-12T07:22:36.696Z,47.84
2023-03-12T07:25:05.507Z,47.63
2023-03-12T07:27:34.020Z,48.20
2023-03-12T07:30:02.554Z,47.85
2023-03-12T07:32:33.369Z,47.47
2023-03-12T07:35:01.884Z,47.66
2023-03-12T07:37:30.704Z,48.12
2023-03-12T07:39:59.193Z,47.66
2023-03-12T07:42:27.797Z,49.22
2023-03-12T07:44:56.250Z,48.22
2023-03-12T07:47:24.892Z,47.76
2023-03-12T07:49:54.035Z,48.71
2023-03-12T07:52:23.523Z,49.64
2023-03-12T07:54:52.862Z,49.44
2023-03-12T07:57:21.452Z,49.59
2023-03-12T07:59:50.188Z,48.78
2023-03-12T08:02:19.089Z,50.27
2023-03-12T08:04:48.031Z,48.36
2023-03-12T08:07:16.821Z,48.43
2023-03-12T08:09:45.779Z,48.85
2023-03-12T08:12:14.248Z,49.75
2023-03-12T08:14:42.841Z,48.59
2023-03-12T08:17:11.584Z,49.92
2023-03-12T08:19:40.077Z,49.40
2023-03-12T08:22:08.818Z,50.02
2023-03-12T08:24:37.302Z,49.14
2023-03-12T08:27:05.810Z,51.48
2023-03-12T08:29:34.500Z,49.60
2023-03-12T08:32:05.282Z,49.02
2023-03-12T08:34:35.205Z,49.56
2023-03-12T08:37:03.883Z,51.80
2023-03-12T08:39:32.662Z,51.01
2023-03-12T08:42:01.217Z,50.23
2023-03-12T08:44:29.942Z,49.59
2023-03-12T08:46:58.368Z,51.85
2023-03-12T08:49:26.960Z,51.36
2023-03-12T08:51:55.374Z,51.35
2023-03-12T08:54:25.852Z,51.14
2023-03-12T08:56:54.332Z,51.92
2023-03-12T08:59:23.443Z,51.68
2023-03-12T09:01:52.041Z,51.89
2023-03-12T09:04:20.477Z,50.72
2023-03-12T09:06:48.910Z,51.03
2023-03-12T09:09:17.405Z,53.45
2023-03-12T09:11:45.805Z,53.24
2023-03-12T09:17:03.042Z,53.41
2023-03-12T09:19:31.578Z,54.05
2023-03-12T09:22:00.023Z,53.07
2023-03-12T09:24:28.430Z,54.46
2023-03-12T09:26:56.923Z,53.23
2023-03-12T09:29:25.472Z,57.04
2023-03-12T09:31:54.336Z,55.19
2023-03-12T09:34:22.996Z,55.15
2023-03-12T09:36:52.116Z,55.00
2023-03-12T09:39:22.639Z,54.70
2023-03-12T09:41:51.171Z,57.44
2023-03-12T09:44:38.109Z,54.84
2023-03-12T09:47:20.872Z,54.18
2023-03-12T09:49:54.973Z,55.12
2023-03-12T09:52:34.335Z,54.68
2023-03-12T09:55:16.670Z,53.93
2023-03-12T09:57:46.259Z,53.99
2023-03-12T10:00:18.154Z,54.30
2023-03-12T10:03:07.444Z,54.20
2023-03-12T10:05:55.318Z,56.33
2023-03-12T10:08:38.399Z,53.77
2023-03-12T10:11:18.536Z,54.67
2023-03-12T10:13:59.348Z,55.15
2023-03-12T10:16:45.388Z,55.82
2023-03-12T10:19:23.933Z,55.55
2023-03-12T10:22:14.475Z,55.97
2023-03-12T10:25:01.473Z,55.38
2023-03-12T10:27:33.327Z,53.42
2023-03-12T10:30:03.110Z,53.66
2023-03-12T10:32:44.109Z,55.27
2023-03-12T10:35:22.163Z,53.82
2023-03-12T10:37:56.923Z,56.23
2023-03-12T10:40:30.904Z,54.54
2023-03-12T10:43:00.218Z,55.76
2023-03-12T10:45:39.586Z,56.08
2023-03-12T10:48:11.833Z,54.97
2023-03-12T10:50:40.920Z,54.58
2023-03-12T10:53:14.597Z,55.13
2023-03-12T10:55:43.093Z,54.03
2023-03-12T10:58:25.304Z,53.86
2023-03-12T11:00:59.543Z,54.88
2023-03-12T11:03:29.568Z,54.85
2023-03-12T11:06:03.846Z,53.18
2023-03-12T11:08:36.252Z,54.15
2023-03-12T11:11:05.655Z,53.38
2023-03-12T11:13:39.675Z,53.99
2023-03-12T11:16:17.044Z,53.87
2023-03-12T11:19:03.853Z,52.82
2023-03-12T11:21:37.210Z,54.35
2023-03-12T11:24:13.811Z,53.83
2023-03-12T11:26:59.236Z,53.28
2023-03-12T11:29:32.995Z,53.58
2023-03-12T11:32:29.990Z,53.14
2023-03-12T11:34:59.488Z,55.07
2023-03-12T11:37:40.388Z,54.47
2023-03-12T11:40:17.002Z,52.93
2023-03-12T11:43:43.161Z,51.70
2023-03-12T11:46:17.914Z,51.79
2023-03-12T11:49:35.679Z,52.78
2023-03-12T11:52:31.528Z,53.94
2023-03-12T11:55:17.568Z,54.40
2023-03-12T11:58:12.580Z,53.89
2023-03-12T12:00:49.125Z,52.87
2023-03-12T12:03:36.026Z,52.02
2023-03-12T12:06:25.287Z,53.01
2023-03-12T12:09:18.296Z,52.88
2023-03-12T12:12:11.528Z,51.67
2023-03-12T12:15:07.853Z,51.60
2023-03-12T12:18:31.524Z,51.46
2023-03-12T12:21:12.549Z,51.29
2023-03-12T12:23:40.900Z,50.83
2023-03-12T12:26:28.834Z,49.82
2023-03-12T12:29:20.934Z,50.93
2023-03-12T12:31:56.481Z,50.47
2023-03-12T12:35:06.974Z,49.45
2023-03-12T12:37:58.484Z,48.71
2023-03-12T12:40:37.528Z,49.07
2023-03-12T12:43:25.249Z,50.13
2023-03-12T12:45:57.950Z,49.23
2023-03-12T12:48:34.997Z,48.89
2023-03-12T12:51:08.291Z,48.05
2023-03-12T12:53:47.209Z,48.93
2023-03-12T12:56:54.765Z,48.12
2023-03-12T12:59:43.794Z,48.88
2023-03-12T13:02:19.500Z,48.13
2023-03-12T13:04:49.017Z,47.98
2023-03-12T13:07:20.380Z,46.95
2023-03-12T13:09:56.738Z,47.39
2023-03-12T13:12:32.789Z,47.32
2023-03-12T13:15:02.597Z,46.48
2023-03-12T13:17:59.756Z,46.24
2023-03-12T13:21:00.041Z,45.81
2023-03-12T13:23:49.729Z,45.72
2023-03-12T13:26:38.486Z,46.46
2023-03-12T13:29:29.001Z,46.66
2023-03-12T13:31:57.625Z,45.47
2023-03-12T13:34:28.065Z,45.77
2023-03-12T13:37:02.516Z,44.90
2023-03-12T13:39:32.579Z,45.40
2023-03-12T13:42:22.305Z,44.44
2023-03-12T13:44:52.449Z,43.98
2023-03-12T13:47:30.295Z,43.95
2023-03-12T13:50:04.817Z,43.57
2023-03-12T13:52:41.493Z,44.12
2023-03-12T13:55:12.974Z,42.92
2023-03-12T13:57:45.914Z,44.95
2023-03-12T14:00:25.090Z,44.36
2023-03-12T14:03:06.372Z,44.60
2023-03-12T14:05:47.873Z,43.93
2023-03-12T14:08:42.272Z,43.95
2023-03-12T14:11:35.288Z,44.09
2023-03-12T14:14:25.000Z,43.55
2023-03-12T14:16:59.671Z,43.60
2023-03-12T14:19:33.873Z,44.04
2023-03-12T14:22:07.771Z,43.57
2023-03-12T14:25:25.639Z,46.32
2023-03-12T14:27:54.250Z,44.16
2023-03-12T14:30:28.580Z,44.95
2023-03-12T14:33:01.261Z,43.87
2023-03-12T14:35:38.821Z,45.89
2023-03-12T14:38:25.362Z,45.72
2023-03-12T14:41:19.080Z,45.64
2023-03-12T14:43:52.124Z,44.75
2023-03-12T14:46:23.152Z,45.08
2023-03-12T14:48:54.837Z,45.34
2023-03-12T14:51:29.770Z,44.99
2023-03-12T14:54:02.683Z,43.73
2023-03-12T14:56:35.406Z,43.79
2023-03-12T14:59:35.003Z,44.21
2023-03-12T15:02:14.926Z,44.87
2023-03-12T15:04:44.266Z,43.33
2023-03-12T15:07:18.462Z,43.77
2023-03-12T15:09:50.657Z,43.75
2023-03-12T15:12:33.826Z,42.61
2023-03-12T15:15:08.396Z,41.88
2023-03-12T15:17:37.469Z,43.21
2023-03-12T15:20:09.280Z,42.04
2023-03-12T15:22:38.501Z,42.03
2023-03-12T15:25:24.624Z,41.45
2023-03-12T15:28:06.985Z,42.83
2023-03-12T15:30:36.266Z,42.53
2023-03-12T15:33:09.436Z,42.82
2023-03-12T15:36:01.767Z,42.26
2023-03-12T15:38:33.531Z,42.86
2023-03-12T15:41:20.290Z,41.91
2023-03-12T15:43:54.231Z,41.99
2023-03-12T15:46:24.241Z,41.88
2023-03-12T15:49:00.771Z,41.96
2023-03-12T15:51:35.689Z,41.63
2023-03-12T15:54:21.669Z,41.79
2023-03-12T15:56:50.203Z,44.57
2023-03-12T15:59:27.637Z,42.58
2023-03-12T16:01:56.761Z,43.19
2023-03-12T16:04:25.853Z,42.45
2023-03-12T16:06:54.289Z,42.37
2023-03-12T16:09:26.262Z,42.21
2023-03-12T16:11:55.512Z,41.88
2023-03-12T16:14:35.086Z,42.71
2023-03-12T16:17:03.617Z,42.93
2023-03-12T16:19:34.235Z,42.59
2023-03-12T16:22:02.750Z,42.89
2023-03-12T16:24:31.121Z,42.64
2023-03-12T16:27:00.278Z,42.08
2023-03-12T16:29:34.479Z,41.88
2023-03-12T16:32:11.367Z,41.52
2023-03-12T16:34:40.244Z,41.62
2023-03-12T16:37:12.475Z,41.39
2023-03-12T16:39:40.925Z,41.78
2023-03-12T16:42:17.466Z,41.91
2023-03-12T16:44:46.752Z,41.66
2023-03-12T16:47:15.313Z,41.73
2023-03-12T16:49:43.850Z,41.93
2023-03-12T16:52:19.269Z,42.18
2023-03-12T16:54:51.732Z,41.74
2023-03-12T16:57:27.939Z,41.59
2023-03-12T16:59:56.723Z,41.52
2023-03-12T17:02:25.322Z,42.68
2023-03-12T17:04:54.175Z,42.32
2023-03-12T17:07:22.558Z,42.68
2023-03-12T17:09:50.984Z,43.93
2023-03-12T17:12:28.391Z,42.96
2023-03-12T17:14:58.702Z,42.66
2023-03-12T17:17:27.134Z,41.61
2023-03-12T17:19:55.737Z,41.47
2023-03-12T17:22:24.980Z,41.51
2023-03-12T17:24:54.289Z,41.43
2023-03-12T17:27:22.950Z,42.20
2023-03-12T17:29:51.381Z,41.81
2023-03-12T17:32:19.828Z,42.32
2023-03-12T17:34:53.903Z,41.99
2023-03-12T17:37:22.440Z,41.46
2023-03-12T17:39:50.914Z,41.49
2023-03-12T17:42:19.584Z,41.91
2023-03-12T17:44:48.150Z,41.97
2023-03-12T17:47:16.621Z,41.96
2023-03-12T17:49:45.414Z,42.04
2023-03-12T17:52:13.850Z,43.32
2023-03-12T17:54:42.322Z,43.26
2023-03-12T17:57:10.758Z,44.87
2023-03-12T17:59:39.220Z,44.95
2023-03-12T18:02:09.758Z,44.27
2023-03-12T18:04:38.186Z,43.59
2023-03-12T18:07:07.075Z,43.38
2023-03-12T18:09:35.578Z,44.02
2023-03-12T18:12:05.566Z,43.01
2023-03-12T18:14:34.204Z,42.53
2023-03-12T18:17:02.622Z,42.71
2023-03-12T18:19:31.123Z,42.54
2023-03-12T18:22:00.004Z,42.70
2023-03-12T18:24:28.447Z,42.80
2023-03-12T18:26:56.975Z,42.96
2023-03-12T18:29:26.039Z,42.49
2023-03-12T18:31:54.493Z,42.32
2023-03-12T18:34:24.013Z,43.14
2023-03-12T18:36:52.689Z,43.30
2023-03-12T18:39:21.138Z,43.39
2023-03-12T18:41:49.599Z,43.38
2023-03-12T18:44:17.983Z,43.76
2023-03-12T18:46:46.501Z,44.43
2023-03-12T18:49:15.007Z,43.69
2023-03-12T18:51:43.427Z,43.39
2023-03-12T18:54:12.784Z,43.47
2023-03-12T18:56:41.439Z,43.36
2023-03-12T18:59:10.061Z,43.29
2023-03-12T19:01:38.431Z,42.95
2023-03-12T19:04:07.156Z,42.97
2023-03-12T19:06:49.738Z,43.11
2023-03-12T19:09:19.813Z,42.78
2023-03-12T19:11:48.902Z,43.07
2023-03-12T19:14:17.377Z,42.98
2023-03-12T19:16:45.769Z,43.80
2023-03-12T19:19:14.206Z,43.54
2023-03-12T19:21:42.696Z,43.34
2023-03-12T19:24:11.161Z,44.08
2023-03-12T19:26:40.009Z,43.69
2023-03-12T19:29:08.615Z,43.74
2023-03-12T19:31:37.031Z,43.47
2023-03-12T19:34:05.605Z,43.03
2023-03-12T19:36:34.207Z,43.93
2023-03-12T19:39:06.735Z,43.44
2023-03-12T19:41:43.109Z,43.54
2023-03-12T19:44:11.533Z,43.38
2023-03-12T19:46:42.963Z,43.46
2023-03-12T19:49:11.426Z,43.28
2023-03-12T19:51:41.192Z,43.30
2023-03-12T19:54:09.601Z,43.22
2023-03-12T19:56:37.974Z,42.95
2023-03-12T19:59:06.363Z,42.69
2023-03-12T20:01:34.887Z,43.10
2023-03-12T20:04:07.887Z,42.78
2023-03-12T20:06:36.350Z,43.01
2023-03-12T20:09:05.447Z,43.39
2023-03-12T20:11:37.862Z,43.23
2023-03-12T20:14:06.300Z,43.12
2023-03-12T20:16:34.853Z,42.95
2023-03-12T20:19:03.699Z,43.03
2023-03-12T20:21:32.181Z,43.08
2023-03-12T20:24:02.160Z,43.05
2023-03-12T20:26:30.817Z,42.99
2023-03-12T20:29:02.519Z,43.07
2023-03-12T20:31:31.209Z,43.29
2023-03-12T20:33:59.999Z,42.98
2023-03-12T20:36:28.500Z,42.99
2023-03-12T20:38:56.940Z,43.14
2023-03-12T20:41:25.349Z,43.32
2023-03-12T20:43:57.687Z,43.10
2023-03-12T20:46:26.469Z,43.49
2023-03-12T20:48:56.689Z,43.80
2023-03-12T20:51:25.456Z,43.40
2023-03-12T20:53:53.883Z,43.37
2023-03-12T20:56:22.295Z,43.36
2023-03-12T20:58:50.700Z,43.46
2023-03-12T21:01:19.531Z,43.32
2023-03-12T21:03:48.071Z,43.47
2023-03-12T21:06:16.611Z,43.91
2023-03-12T21:08:45.071Z,43.65
2023-03-12T21:11:13.547Z,43.51
2023-03-12T21:13:41.967Z,44.03
2023-03-12T21:16:11.717Z,44.08
2023-03-12T21:18:40.105Z,43.99
2023-03-12T21:21:08.734Z,43.82
2023-03-12T21:23:38.779Z,44.14
2023-03-12T21:26:09.350Z,44.10
2023-03-12T21:28:38.044Z,44.07
2023-03-12T21:31:09.234Z,43.82
2023-03-12T21:33:37.660Z,43.81
2023-03-12T21:36:11.409Z,44.07
2023-03-12T21:38:40.943Z,44.00
2023-03-12T21:41:14.922Z,44.20
2023-03-12T21:43:44.457Z,44.10
2023-03-12T21:46:19.178Z,44.24
2023-03-12T21:48:48.317Z,44.86
2023-03-12T21:51:17.886Z,44.21
2023-03-12T21:53:46.277Z,44.61
2023-03-12T21:56:14.753Z,44.08
2023-03-12T21:58:44.231Z,43.86
2023-03-12T22:01:15.810Z,43.82
2023-03-12T22:03:45.516Z,43.88
2023-03-12T22:06:15.695Z,44.19
2023-03-12T22:08:45.317Z,44.19
2023-03-12T22:11:14.606Z,43.49
2023-03-12T22:13:43.186Z,43.90
2023-03-12T22:16:13.485Z,44.55
2023-03-12T22:18:44.386Z,44.21
2023-03-12T22:21:18.598Z,44.71
2023-03-12T22:23:48.371Z,44.23
2023-03-12T22:26:17.343Z,44.03
2023-03-12T22:28:51.000Z,43.77
2023-03-12T22:31:21.128Z,43.97
2023-03-12T22:33:49.749Z,44.38
2023-03-12T22:36:19.928Z,44.18
2023-03-12T22:38:49.266Z,44.73
2023-03-12T22:41:22.057Z,44.76
2023-03-12T22:43:52.312Z,45.87
2023-03-12T22:46:23.163Z,44.63
2023-03-12T22:48:54.531Z,43.72
2023-03-12T22:51:23.909Z,43.83
2023-03-12T22:53:52.485Z,43.50
2023-03-12T22:56:21.610Z,44.36
2023-03-12T22:58:50.478Z,44.27
2023-03-12T23:01:21.674Z,45.44
2023-03-12T23:03:50.385Z,44.38
2023-03-12T23:06:21.289Z,44.05
2023-03-12T23:08:51.183Z,44.12
2023-03-12T23:11:20.716Z,44.24
2023-03-12T23:13:49.803Z,44.98
2023-03-12T23:16:21.472Z,44.52
2023-03-12T23:18:50.782Z,44.41
2023-03-12T23:21:21.761Z,44.35
2023-03-12T23:23:50.559Z,44.52
2023-03-12T23:26:24.553Z,44.03
2023-03-12T23:28:58.808Z,44.92
2023-03-12T23:31:28.450Z,44.86
2023-03-12T23:33:58.399Z,45.21
2023-03-12T23:36:27.682Z,45.12
2023-03-12T23:38:56.678Z,45.37
2023-03-12T23:41:29.447Z,45.07
2023-03-12T23:43:59.047Z,45.47
2023-03-12T23:46:27.880Z,44.90
2023-03-12T23:48:57.125Z,45.69
2023-03-12T23:51:31.527Z,46.16
2023-03-12T23:54:02.003Z,46.47
2023-03-12T23:56:39.293Z,46.31
2023-03-12T23:59:09.446Z,46.66
